Time;durP1;ratioP1;P1;durP2;ratioP2;P2;SDS_P1;SDS_P2;PMS_P1;PMS_P2;Temp;Humidity;BMP_temperature;BMP_pressure;BME280_temperature;BME280_humidity;BME280_pressure;Samples;Min_cycle;Max_cycle;Signal;HPM_P1;HPM_P2
2023/09/01 00:00:17;;;;;;;15.25;10.32;;;;;;;15.31;100.00;100922.69;5092019;28;20109;-49
2023/09/01 00:02:42;;;;;;;15.63;10.90;;;;;;;15.65;100.00;100989.03;5092454;28;20036;-50
2023/09/01 00:05:08;;;;;;;16.83;9.85;;;;;;;15.72;100.00;101003.72;5094085;28;20372;-54
2023/09/01 00:07:34;;;;;;;17.27;10.98;;;;;;;15.59;100.00;100984.03;5083606;28;20482;-48
2023/09/01 00:09:59;;;;;;;15.50;9.80;;;;;;;15.32;100.00;100948.28;5085980;28;20411;-50
2023/09/01 00:12:25;;;;;;;14.75;9.43;;;;;;;15.24;100.00;100924.78;5093756;28;20044;-53
2023/09/01 00:14:51;;;;;;;13.35;9.98;;;;;;;15.72;100.00;101003.72;5093617;28;20036;-49
2023/09/01 00:17:16;;;;;;;18.48;9.70;;;;;;;15.57;100.00;100983.28;5092794;28;20081;-48
2023/09/01 00:19:42;;;;;;;12.55;9.02;;;;;;;15.48;100.00;100959.84;5092243;28;20036;-48
2023/09/01 00:22:07;;;;;;;15.98;9.50;;;;;;;15.26;100.00;100922.06;5093709;28;20108;-49
2023/09/01 00:24:33;;;;;;;15.77;7.93;;;;;;;15.66;100.00;101004.91;5092409;28;20028;-50
2023/09/01 00:26:59;;;;;;;16.08;8.15;;;;;;;15.19;100.00;100925.03;5087139;28;20032;-54
2023/09/01 00:29:24;;;;;;;13.88;8.43;;;;;;;15.62;100.00;101021.91;5072978;28;20040;-49
2023/09/01 00:31:50;;;;;;;12.13;7.63;;;;;;;15.02;100.00;100911.75;5072578;28;20106;-48
2023/09/01 00:34:16;;;;;;;12.15;7.10;;;;;;;15.31;100.00;100973.94;5072617;28;20117;-48
2023/09/01 00:36:41;;;;;;;16.30;7.85;;;;;;;15.58;100.00;101022.16;5073045;28;20495;-53
2023/09/01 00:39:07;;;;;;;11.10;7.55;;;;;;;15.59;100.00;101015.88;5072416;28;20067;-49
2023/09/01 00:41:32;;;;;;;8.80;6.60;;;;;;;15.22;100.00;100955.84;5076711;28;20044;-52
2023/09/01 00:43:57;;;;;;;14.63;7.40;;;;;;;15.56;100.00;101008.94;5091852;28;20028;-54
2023/09/01 00:46:23;;;;;;;9.70;6.93;;;;;;;15.18;100.00;100944.50;5090228;28;20028;-55
2023/09/01 00:48:48;;;;;;;12.90;6.68;;;;;;;15.60;100.00;101001.69;5073200;28;20063;-50
2023/09/01 00:51:14;;;;;;;9.45;5.80;;;;;;;15.58;100.00;101003.56;5071099;28;20441;-51
2023/09/01 00:53:40;;;;;;;10.18;6.05;;;;;;;15.37;100.00;100967.47;5072816;28;20039;-49
2023/09/01 00:56:05;;;;;;;13.07;5.72;;;;;;;15.56;100.00;100994.81;5071217;28;20118;-56
2023/09/01 00:58:31;;;;;;;9.23;5.93;;;;;;;15.39;100.00;100978.84;5084163;28;20043;-54
2023/09/01 01:00:58;;;;;;;8.98;5.10;;;;;;;15.36;100.00;100971.03;5091679;28;20031;-51
2023/09/01 01:03:24;;;;;;;10.10;5.38;;;;;;;15.26;100.00;100946.81;5092740;28;20394;-54
2023/09/01 01:06:09;;;;;;;10.02;6.00;;;;;;;15.54;100.00;100994.91;5091382;28;20036;-55
2023/09/01 01:08:47;;;;;;;9.65;5.63;;;;;;;15.60;100.00;101014.97;5090666;28;20062;-53
2023/09/01 01:11:17;;;;;;;8.98;5.18;;;;;;;15.34;100.00;100975.56;5090848;28;20114;-50
2023/09/01 01:13:47;;;;;;;11.80;6.50;;;;;;;15.54;100.00;101016.13;5090048;28;20102;-50
2023/09/01 01:16:13;;;;;;;8.90;5.45;;;;;;;15.55;100.00;101014.34;5092704;28;20036;-49
2023/09/01 01:18:40;;;;;;;12.27;5.68;;;;;;;15.49;100.00;101006.69;5073675;28;20040;-52
2023/09/01 01:21:07;;;;;;;8.18;5.20;;;;;;;15.52;100.00;101011.84;5070654;28;20041;-52
2023/09/01 01:23:33;;;;;;;8.02;5.28;;;;;;;15.52;100.00;101020.66;5072241;28;20024;-52
2023/09/01 01:25:58;;;;;;;9.43;5.88;;;;;;;15.07;100.00;100946.84;5070873;28;20369;-58
2023/09/01 01:28:24;;;;;;;10.05;5.57;;;;;;;15.34;100.00;100996.78;5072149;28;20043;-51
2023/09/01 01:30:49;;;;;;;7.85;5.70;;;;;;;15.19;100.00;100972.75;5075362;28;20052;-51
2023/09/01 01:33:46;;;;;;;12.00;5.65;;;;;;;15.49;100.00;101027.91;5092342;28;20117;-51
2023/09/01 01:36:31;;;;;;;10.05;5.20;;;;;;;15.48;100.00;101026.19;5092316;28;20497;-54
2023/09/01 01:39:04;;;;;;;9.82;6.47;;;;;;;15.47;100.00;101011.22;5084613;28;20037;-50
2023/09/01 01:41:53;;;;;;;9.05;5.35;;;;;;;15.44;100.00;101008.69;5087748;28;20036;-51
2023/09/01 01:44:25;;;;;;;7.43;5.05;;;;;;;15.05;100.00;100954.03;5089862;28;20028;-52
2023/09/01 01:46:52;;;;;;;9.50;4.75;;;;;;;15.17;100.00;100990.53;5089370;28;20032;-52
2023/09/01 01:49:18;;;;;;;8.23;5.32;;;;;;;14.92;100.00;100957.31;5090013;28;20067;-53
2023/09/01 01:51:44;;;;;;;12.48;5.43;;;;;;;15.20;100.00;101005.44;5089792;28;20040;-50
2023/09/01 01:54:09;;;;;;;11.20;5.82;;;;;;;15.05;100.00;100990.28;5091720;28;20117;-49
2023/09/01 01:56:34;;;;;;;11.55;5.55;;;;;;;14.71;100.00;100943.31;5088328;28;20032;-53
2023/09/01 01:58:59;;;;;;;9.13;5.82;;;;;;;15.03;100.00;101006.22;5071704;28;20040;-49
2023/09/01 02:01:25;;;;;;;10.43;5.75;;;;;;;15.05;100.00;101008.81;5075862;28;20067;-54
2023/09/01 02:03:51;;;;;;;9.73;5.50;;;;;;;14.72;100.00;100963.59;5091800;28;20038;-52
2023/09/01 02:06:17;;;;;;;10.73;5.85;;;;;;;14.99;100.00;101007.34;5089144;28;20136;-49
2023/09/01 02:08:42;;;;;;;10.20;6.10;;;;;;;14.98;100.00;101010.03;5092018;28;20079;-55
2023/09/01 02:11:07;;;;;;;11.38;5.25;;;;;;;14.98;100.00;101002.94;5092049;28;20048;-50
2023/09/01 02:13:32;;;;;;;8.35;5.55;;;;;;;14.59;100.00;100931.50;5071684;28;20093;-52
2023/09/01 02:15:58;;;;;;;10.98;6.40;;;;;;;14.94;100.00;100984.63;5071380;28;20400;-52
2023/09/01 02:18:24;;;;;;;13.35;6.80;;;;;;;15.00;100.00;100989.63;5087522;28;20445;-48
2023/09/01 02:20:50;;;;;;;11.48;6.22;;;;;;;15.05;100.00;100998.22;5089458;28;20032;-50
2023/09/01 02:23:16;;;;;;;11.90;6.10;;;;;;;15.05;100.00;100991.13;5091573;28;20067;-49
2023/09/01 02:25:43;;;;;;;12.20;6.78;;;;;;;15.12;100.00;101003.16;5095781;28;20496;-53
2023/09/01 02:28:08;;;;;;;10.38;6.47;;;;;;;15.15;100.00;101004.78;5093126;28;20040;-49
2023/09/01 02:30:33;;;;;;;8.65;5.95;;;;;;;15.16;100.00;100999.41;5095625;28;20035;-49
2023/09/01 02:32:59;;;;;;;12.25;6.55;;;;;;;14.79;100.00;100932.34;5084851;28;20052;-51
2023/09/01 02:35:24;;;;;;;8.02;5.78;;;;;;;14.82;100.00;100937.50;5075753;28;20032;-57
2023/09/01 02:37:49;;;;;;;10.32;5.30;;;;;;;14.77;100.00;100926.28;5082411;28;20479;-49
2023/09/01 02:40:15;;;;;;;11.68;6.15;;;;;;;15.23;100.00;101001.78;5094408;28;20047;-48
2023/09/01 02:42:41;;;;;;;9.60;5.72;;;;;;;15.23;100.00;101007.94;5092871;28;20040;-50
2023/09/01 02:45:09;;;;;;;10.55;5.60;;;;;;;15.20;100.00;100997.50;5093874;28;20372;-52
2023/09/01 02:47:35;;;;;;;11.25;6.53;;;;;;;14.87;100.00;100935.50;5092162;28;20098;-50
2023/09/01 02:50:02;;;;;;;12.73;6.78;;;;;;;15.19;100.00;100996.63;5095330;28;20074;-49
2023/09/01 02:52:27;;;;;;;10.40;7.28;;;;;;;15.10;100.00;100970.56;5094110;28;20444;-50
2023/09/01 02:54:53;;;;;;;14.25;8.00;;;;;;;14.73;100.00;100916.75;5093216;28;20032;-47
2023/09/01 02:57:18;;;;;;;12.95;8.80;;;;;;;14.66;100.00;100889.69;5095071;28;20032;-53
2023/09/01 02:59:43;;;;;;;12.07;9.32;;;;;;;15.16;100.00;100972.91;5093225;28;20085;-52
2023/09/01 03:02:09;;;;;;;12.48;8.38;;;;;;;14.76;100.00;100912.16;5095112;28;20059;-54
2023/09/01 03:04:34;;;;;;;12.70;9.75;;;;;;;15.16;100.00;100986.16;5095514;28;20062;-50
2023/09/01 03:06:59;;;;;;;13.68;9.50;;;;;;;15.06;100.00;100949.59;5094716;28;20040;-51
2023/09/01 03:09:24;;;;;;;16.65;9.75;;;;;;;14.60;100.00;100876.72;5093911;28;20040;-49
2023/09/01 03:11:50;;;;;;;14.05;8.45;;;;;;;15.14;100.00;100972.13;5093948;28;20046;-53
2023/09/01 03:14:15;;;;;;;14.77;8.93;;;;;;;14.99;100.00;100945.50;5095017;28;20055;-52
2023/09/01 03:16:43;;;;;;;15.00;8.80;;;;;;;14.90;100.00;100932.69;5094813;28;20109;-56
2023/09/01 03:19:09;;;;;;;12.30;8.80;;;;;;;14.73;100.00;100907.03;5094801;28;20038;-51
2023/09/01 03:21:34;;;;;;;14.27;8.85;;;;;;;15.07;100.00;100973.34;5094924;28;20476;-48
2023/09/01 03:23:59;;;;;;;12.55;8.23;;;;;;;14.56;100.00;100891.06;5094953;28;20039;-48
2023/09/01 03:26:25;;;;;;;14.25;8.35;;;;;;;14.86;100.00;100942.56;5093860;28;20035;-49
2023/09/01 03:28:50;;;;;;;14.48;9.00;;;;;;;14.71;100.00;100913.31;5093428;28;20483;-55
2023/09/01 03:31:16;;;;;;;12.43;8.02;;;;;;;15.10;100.00;100977.63;5093237;28;20500;-48
2023/09/01 03:33:42;;;;;;;15.30;8.50;;;;;;;15.10;100.00;100981.16;5092712;28;20035;-51
2023/09/01 03:36:10;;;;;;;13.60;8.50;;;;;;;15.11;100.00;100976.72;5094644;28;20028;-57
2023/09/01 03:38:36;;;;;;;11.75;8.32;;;;;;;14.53;100.00;100872.69;5094350;28;20035;-50
2023/09/01 03:41:05;;;;;;;16.60;8.82;;;;;;;14.68;100.00;100908.19;5094514;28;20096;-49
2023/09/01 03:43:31;;;;;;;14.65;8.73;;;;;;;14.71;100.00;100903.56;5094439;28;20097;-49
2023/09/01 03:45:57;;;;;;;10.65;7.75;;;;;;;15.10;100.00;100981.16;5094486;28;20097;-51
2023/09/01 03:48:23;;;;;;;16.23;9.20;;;;;;;14.94;100.00;100936.91;5093563;28;20115;-54
2023/09/01 03:51:13;;;;;;;16.77;9.25;;;;;;;15.12;100.00;100973.97;5094551;28;20036;-50
2023/09/01 03:53:39;;;;;;;15.35;9.05;;;;;;;15.10;100.00;100967.03;5094299;28;20609;-51
2023/09/01 03:56:12;;;;;;;14.35;8.85;;;;;;;14.68;100.00;100902.88;5094157;28;20126;-53
2023/09/01 03:58:38;;;;;;;11.52;8.23;;;;;;;14.91;100.00;100945.03;5094054;28;20405;-55
2023/09/01 04:01:11;;;;;;;13.43;9.95;;;;;;;14.75;100.00;100915.75;5093041;28;20038;-48
2023/09/01 04:03:42;;;;;;;18.48;9.93;;;;;;;15.09;100.00;100960.88;5093053;28;20040;-49
2023/09/01 04:06:08;;;;;;;12.98;9.40;;;;;;;15.08;100.00;100958.31;5094007;28;20024;-48
2023/09/01 04:08:34;;;;;;;14.57;9.85;;;;;;;15.08;100.00;100964.47;5093893;28;20036;-53
2023/09/01 04:11:00;;;;;;;14.63;10.38;;;;;;;14.61;100.00;100883.75;5093727;28;20115;-52
2023/09/01 04:13:25;;;;;;;13.98;9.90;;;;;;;14.95;100.00;100963.34;5092812;28;20463;-51
2023/09/01 04:15:51;;;;;;;12.68;9.48;;;;;;;15.02;100.00;100954.16;5093851;28;20047;-49
2023/09/01 04:18:17;;;;;;;19.55;10.38;;;;;;;14.87;100.00;100940.78;5093656;28;20558;-55
2023/09/01 04:20:49;;;;;;;14.88;10.45;;;;;;;15.03;100.00;100970.94;5091665;28;20051;-55
2023/09/01 04:23:15;;;;;;;13.27;10.30;;;;;;;14.62;100.00;100898.72;5093999;28;20135;-53
2023/09/01 04:25:41;;;;;;;16.60;10.60;;;;;;;14.55;100.00;100882.25;5092404;28;20565;-53
2023/09/01 04:28:06;;;;;;;18.38;10.32;;;;;;;14.58;100.00;100895.38;5092068;28;20047;-48
2023/09/01 04:30:32;;;;;;;16.52;10.82;;;;;;;14.98;100.00;100960.53;5092969;28;20429;-48
2023/09/01 04:32:57;;;;;;;18.70;10.77;;;;;;;15.00;100.00;100973.75;5093289;28;20483;-54
2023/09/01 04:35:22;;;;;;;13.65;9.68;;;;;;;14.65;100.00;100910.00;5092314;28;20436;-48
2023/09/01 04:37:47;;;;;;;12.27;9.30;;;;;;;14.92;100.00;100958.19;5093381;28;20043;-51
2023/09/01 04:40:13;;;;;;;12.50;9.75;;;;;;;15.00;100.00;100982.53;5093513;28;20039;-53
2023/09/01 04:42:39;;;;;;;14.52;9.55;;;;;;;14.54;100.00;100891.13;5093530;28;20040;-57
2023/09/01 04:45:04;;;;;;;12.75;9.23;;;;;;;14.55;100.00;100892.00;5092842;28;20028;-53
2023/09/01 04:47:30;;;;;;;14.55;9.85;;;;;;;14.98;100.00;100972.94;5092046;28;20039;-56
2023/09/01 04:49:55;;;;;;;11.73;9.18;;;;;;;14.59;100.00;100906.81;5093303;28;20043;-48
2023/09/01 04:52:20;;;;;;;14.38;9.90;;;;;;;14.96;100.00;100958.91;5092280;28;20039;-50
2023/09/01 04:54:46;;;;;;;12.52;9.38;;;;;;;14.64;100.00;100913.63;5093071;28;20040;-48
2023/09/01 04:57:11;;;;;;;13.13;9.35;;;;;;;14.87;100.00;100956.69;5091975;28;20024;-52
2023/09/01 04:59:36;;;;;;;12.60;9.85;;;;;;;14.63;100.00;100914.53;5093009;28;20043;-51
2023/09/01 05:02:02;;;;;;;13.85;10.43;;;;;;;14.99;100.00;100974.66;5092890;28;20104;-52
2023/09/01 05:04:27;;;;;;;13.80;9.48;;;;;;;14.94;100.00;100953.69;5092637;28;20441;-49
2023/09/01 05:06:53;;;;;;;15.45;9.77;;;;;;;14.96;100.00;100962.41;5090368;28;20395;-53
2023/09/01 05:09:19;;;;;;;15.43;10.63;;;;;;;15.03;100.00;100970.94;5092954;28;20043;-55
2023/09/01 05:11:44;;;;;;;15.18;10.70;;;;;;;14.85;100.00;100942.66;5091644;28;20115;-49
2023/09/01 05:14:09;;;;;;;10.07;9.05;;;;;;;14.59;100.00;100893.59;5092281;28;20527;-48
2023/09/01 05:16:35;;;;;;;14.52;10.55;;;;;;;14.55;100.00;100887.56;5092512;28;20043;-46
2023/09/01 05:19:00;;;;;;;12.60;10.02;;;;;;;15.04;100.00;100968.19;5092528;28;20036;-48
2023/09/01 05:21:25;;;;;;;16.65;9.50;;;;;;;15.03;100.00;100969.13;5092421;28;20042;-56
2023/09/01 05:23:51;;;;;;;15.77;9.63;;;;;;;14.63;100.00;100900.44;5091204;28;20063;-48
2023/09/01 05:26:16;;;;;;;14.40;9.60;;;;;;;15.09;100.00;100973.28;5092522;28;20119;-50
2023/09/01 05:28:41;;;;;;;11.93;9.07;;;;;;;14.93;100.00;100953.75;5092444;28;20063;-52
2023/09/01 05:31:07;;;;;;;12.52;9.25;;;;;;;14.68;100.00;100916.13;5092167;28;20056;-50
2023/09/01 05:33:32;;;;;;;13.77;9.38;;;;;;;15.13;100.00;100999.56;5092060;28;20100;-55
2023/09/01 05:35:57;;;;;;;13.32;9.40;;;;;;;15.17;100.00;100976.41;5092335;28;20395;-51
2023/09/01 05:38:22;;;;;;;11.18;8.90;;;;;;;14.75;100.00;100894.53;5092227;28;20036;-51
2023/09/01 05:40:56;;;;;;;14.15;9.85;;;;;;;15.00;100.00;100941.94;5090137;28;20077;-53
2023/09/01 05:43:22;;;;;;;12.18;8.98;;;;;;;15.23;100.00;100968.16;5092135;28;20028;-53
2023/09/01 05:45:47;;;;;;;14.75;9.55;;;;;;;14.96;100.00;100916.50;5091289;28;20475;-48
2023/09/01 05:48:12;;;;;;;13.00;9.30;;;;;;;14.89;100.00;100893.84;5091288;28;20032;-48
2023/09/01 05:50:38;;;;;;;15.65;10.10;;;;;;;15.31;100.00;100959.81;5092450;28;20036;-52
2023/09/01 05:53:04;;;;;;;12.80;9.35;;;;;;;15.30;100.00;100969.56;5091169;28;20028;-49
2023/09/01 05:55:29;;;;;;;9.43;8.00;;;;;;;14.92;100.00;100904.31;5091340;28;20039;-50
2023/09/01 05:57:55;;;;;;;15.93;8.85;;;;;;;15.38;100.00;100977.16;5091057;28;20471;-53
2023/09/01 06:00:20;;;;;;;11.93;8.43;;;;;;;15.38;100.00;100985.94;5092010;28;20027;-47
2023/09/01 06:02:46;;;;;;;13.55;8.85;;;;;;;15.09;100.00;100934.34;5092376;28;20028;-55
2023/09/01 06:05:11;;;;;;;10.40;8.30;;;;;;;15.05;100.00;100930.16;5091223;28;20044;-51
2023/09/01 06:07:37;;;;;;;13.07;9.13;;;;;;;15.00;100.00;100913.59;5092078;28;20043;-48
2023/09/01 06:10:04;;;;;;;10.77;8.73;;;;;;;14.92;100.00;100905.16;5090520;28;20506;-53
2023/09/01 06:12:29;;;;;;;12.32;8.13;;;;;;;15.44;100.00;100996.25;5088792;28;20376;-48
2023/09/01 06:14:54;;;;;;;13.02;8.60;;;;;;;15.02;100.00;100919.72;5091556;28;20042;-55
2023/09/01 06:17:20;;;;;;;10.88;7.63;;;;;;;15.37;100.00;100978.06;5091373;28;20036;-52
2023/09/01 06:19:45;;;;;;;10.70;8.52;;;;;;;15.49;100.00;100996.06;5091751;28;20497;-59
2023/09/01 06:22:10;;;;;;;11.65;8.25;;;;;;;15.08;100.00;100922.06;5091922;28;20036;-53
2023/09/01 06:24:35;;;;;;;12.25;8.45;;;;;;;15.13;100.00;100922.69;5090901;28;20098;-55
2023/09/01 06:27:01;;;;;;;9.63;7.70;;;;;;;15.56;100.00;100995.69;5073880;28;20028;-52
2023/09/01 06:29:26;;;;;;;11.30;8.70;;;;;;;15.59;100.00;100992.88;5090891;28;20085;-53
2023/09/01 06:31:51;;;;;;;12.32;8.10;;;;;;;15.22;100.00;100924.00;5092136;28;20048;-55
2023/09/01 06:34:17;;;;;;;10.88;7.53;;;;;;;15.26;100.00;100916.75;5091686;28;20395;-49
2023/09/01 06:36:42;;;;;;;12.57;9.15;;;;;;;15.33;100.00;100932.28;5091675;28;20031;-54
2023/09/01 06:39:07;;;;;;;10.80;8.07;;;;;;;15.72;100.00;100999.28;5090583;28;20376;-51
2023/09/01 06:41:33;;;;;;;9.80;7.72;;;;;;;15.72;100.00;101001.06;5091980;28;20032;-53
2023/09/01 06:44:00;;;;;;;10.52;7.90;;;;;;;15.62;100.00;100983.88;5090760;28;20063;-56
2023/09/01 06:46:25;;;;;;;10.77;8.38;;;;;;;15.37;100.00;100936.50;5090678;28;20044;-57
2023/09/01 06:48:50;;;;;;;9.80;7.40;;;;;;;15.65;100.00;100989.03;5091712;28;20046;-51
2023/09/01 06:51:16;;;;;;;13.43;8.20;;;;;;;15.38;100.00;100932.91;5091842;28;20028;-48
2023/09/01 06:53:41;;;;;;;11.43;7.93;;;;;;;15.03;100.00;100863.09;5091690;28;20054;-51
2023/09/01 06:56:06;;;;;;;11.15;7.95;;;;;;;15.79;100.00;100994.50;5092030;28;20471;-50
2023/09/01 06:58:32;;;;;;;9.65;7.72;;;;;;;15.41;100.00;100914.19;5091756;28;21030;-48
2023/09/01 07:01:06;;;;;;;8.70;7.00;;;;;;;15.60;100.00;100949.50;5090568;28;20036;-48
2023/09/01 07:03:31;;;;;;;10.32;7.50;;;;;;;15.66;100.00;100956.28;5090210;28;20093;-55
2023/09/01 07:05:57;;;;;;;11.23;7.47;;;;;;;16.03;100.00;101003.84;5091623;28;20028;-49
2023/09/01 07:08:24;;;;;;;10.15;7.75;;;;;;;16.05;100.00;100995.81;5091808;28;20028;-56
2023/09/01 07:10:49;;;;;;;9.48;7.47;;;;;;;15.62;100.00;100930.81;5094128;28;20472;-49
2023/09/01 07:13:14;;;;;;;9.98;7.60;;;;;;;15.65;100.00;100934.19;5095028;28;20115;-50
2023/09/01 07:15:40;;;;;;;11.10;7.65;;;;;;;16.03;100.00;100998.56;5093035;28;20075;-54
2023/09/01 07:18:05;;;;;;;9.35;7.35;;;;;;;15.89;100.00;100968.34;5093831;28;20032;-52
2023/09/01 07:20:30;;;;;;;11.57;7.38;;;;;;;16.06;100.00;101001.03;5094945;28;20071;-54
2023/09/01 07:22:56;;;;;;;12.68;7.43;;;;;;;16.10;100.00;100999.09;5092102;28;20040;-48
2023/09/01 07:25:21;;;;;;;11.98;7.30;;;;;;;16.10;100.00;100997.31;5093212;28;20050;-52
2023/09/01 07:27:46;;;;;;;10.68;7.20;;;;;;;15.84;100.00;100950.03;5092900;28;20032;-50
2023/09/01 07:30:13;;;;;;;9.88;7.32;;;;;;;16.11;100.00;100991.03;5091387;28;20035;-48
2023/09/01 07:32:40;;;;;;;10.02;6.75;;;;;;;15.73;100.00;100924.03;5092572;28;20458;-53
2023/09/01 07:35:06;;;;;;;10.80;8.40;;;;;;;15.75;100.00;100923.97;5091377;28;20043;-53
2023/09/01 07:37:31;;;;;;;12.60;7.20;;;;;;;16.00;100.00;100976.59;5092565;28;20306;-49
2023/09/01 07:39:57;;;;;;;10.43;7.63;;;;;;;16.13;100.00;100985.66;5091047;28;20051;-52
2023/09/01 07:42:22;;;;;;;10.90;7.68;;;;;;;16.23;100.00;100992.19;5092528;28;20620;-48
2023/09/01 07:44:48;;;;;;;9.02;7.10;;;;;;;16.15;100.00;100970.50;5092692;28;20474;-54
2023/09/01 07:47:13;;;;;;;10.95;7.95;;;;;;;16.30;100.00;100991.78;5092536;28;20036;-54
2023/09/01 07:49:39;;;;;;;9.60;7.43;;;;;;;16.20;100.00;100968.44;5080795;28;20086;-52
2023/09/01 07:52:04;;;;;;;10.25;6.93;;;;;;;16.38;100.00;100999.34;5071846;28;20127;-51
2023/09/01 07:54:29;;;;;;;11.35;6.80;;;;;;;16.11;100.00;100940.56;5070824;28;20123;-51
2023/09/01 07:56:55;;;;;;;9.30;6.90;;;;;;;16.45;100.00;101002.53;5072265;28;20109;-48
2023/09/01 07:59:20;;;;;;;9.43;7.13;;;;;;;16.00;100.00;100923.50;5072038;28;20044;-55
2023/09/01 08:01:46;;;;;;;9.93;6.85;;;;;;;16.42;100.00;100995.59;5071951;28;20029;-54
2023/09/01 08:04:11;;;;;;;9.93;7.05;;;;;;;16.23;100.00;100968.28;5071851;28;20029;-50
2023/09/01 08:06:36;;;;;;;11.18;7.78;;;;;;;16.43;100.00;101001.75;5087196;28;20036;-50
2023/09/01 08:09:03;;;;;;;10.65;7.70;;;;;;;16.40;100.00;100999.28;5076585;28;20042;-53
2023/09/01 08:11:28;;;;;;;10.95;7.90;;;;;;;16.46;100.00;100997.13;5083472;28;20039;-54
2023/09/01 08:13:53;;;;;;;11.43;8.43;;;;;;;16.49;100.00;100988.16;5089133;28;20538;-52
2023/09/01 08:16:19;;;;;;;10.55;7.78;;;;;;;16.53;100.00;101005.63;5082342;28;20032;-54
2023/09/01 08:18:44;;;;;;;9.95;7.47;;;;;;;16.12;100.00;100931.69;5087639;28;20048;-49
2023/09/01 08:21:10;;;;;;;9.52;7.88;;;;;;;16.12;100.00;100931.69;5091485;28;20069;-50
2023/09/01 08:23:35;;;;;;;9.05;7.32;;;;;;;16.44;100.00;100991.03;5090536;28;20028;-54
2023/09/01 08:26:04;;;;;;;9.60;7.38;;;;;;;16.50;100.00;100992.50;5089123;28;20032;-47
2023/09/01 08:28:31;;;;;;;9.73;7.45;;;;;;;16.40;100.00;100967.38;5091746;28;20036;-50
2023/09/01 08:31:04;;;;;;;10.52;7.63;;;;;;;16.26;100.00;100942.41;5091427;28;20097;-51
2023/09/01 08:33:30;;;;;;;9.15;7.65;;;;;;;16.68;100.00;101007.47;5089595;28;20040;-52
2023/09/01 08:35:55;;;;;;;9.75;7.68;;;;;;;16.71;100.00;101021.47;5090911;28;20039;-53
2023/09/01 08:38:21;;;;;;;9.00;7.63;;;;;;;16.37;100.00;100967.56;5091253;28;20364;-54
2023/09/01 08:40:48;;;;;;;8.10;7.25;;;;;;;16.71;100.00;101012.63;5091397;28;20116;-51
2023/09/01 08:43:15;;;;;;;9.60;7.45;;;;;;;16.71;100.00;101015.28;5075864;28;20040;-57
2023/09/01 08:45:41;;;;;;;11.93;8.00;;;;;;;16.73;100.00;101018.72;5069712;28;20032;-47
2023/09/01 08:48:06;;;;;;;10.60;7.32;;;;;;;16.31;100.00;100956.28;5080037;28;20047;-49
2023/09/01 08:50:31;;;;;;;8.13;6.82;;;;;;;16.71;100.00;101026.78;5091350;28;20036;-53
2023/09/01 08:52:59;;;;;;;11.43;7.80;;;;;;;16.67;100.00;101025.22;5091258;28;20040;-54
2023/09/01 08:55:26;;;;;;;12.00;7.63;;;;;;;16.59;100.00;101007.97;5091127;28;20115;-49
2023/09/01 08:57:51;;;;;;;12.30;7.97;;;;;;;16.32;100.00;100957.16;5089742;28;20461;-51
2023/09/01 09:00:17;;;;;;;9.13;7.68;;;;;;;16.60;100.00;101004.38;5088222;28;20043;-49
2023/09/01 09:02:44;;;;;;;10.07;8.48;;;;;;;16.75;100.00;101033.63;5081549;28;20067;-48
2023/09/01 09:05:13;;;;;;;10.10;8.80;;;;;;;16.67;100.00;101021.69;5069317;28;20077;-50
2023/09/01 09:07:38;;;;;;;13.15;9.02;;;;;;;16.37;100.00;100986.16;5070748;28;20040;-48
2023/09/01 09:10:04;;;;;;;11.05;8.82;;;;;;;16.60;100.00;101023.84;5070630;28;20424;-54
2023/09/01 09:12:38;;;;;;;11.88;8.25;;;;;;;16.77;100.00;101042.41;5069232;28;20044;-54
2023/09/01 09:15:04;;;;;;;11.32;8.60;;;;;;;16.77;100.00;101034.44;5070217;28;20437;-51
2023/09/01 09:17:46;;;;;;;10.85;8.57;;;;;;;16.77;100.00;101029.09;5085594;28;20177;-49
2023/09/01 09:20:12;;;;;;;9.77;8.20;;;;;;;16.47;100.00;100968.75;5089700;28;20450;-56
2023/09/01 09:23:01;;;;;;;10.70;8.88;;;;;;;16.88;100.00;101042.66;5089157;28;20415;-52
2023/09/01 09:25:28;;;;;;;11.57;8.80;;;;;;;16.87;100.00;101056.88;5089214;28;20050;-51
2023/09/01 09:27:54;;;;;;;10.45;8.57;;;;;;;16.87;100.00;101045.41;5090533;28;20106;-47
2023/09/01 09:30:20;;;;;;;10.50;7.70;;;;;;;16.98;100.00;101055.47;5090374;28;20092;-55
2023/09/01 09:32:45;;;;;;;10.00;7.93;;;;;;;17.03;100.00;101037.44;5082584;28;20554;-53
2023/09/01 09:35:16;;;;;;;9.15;8.10;;;;;;;17.05;100.00;101024.91;5088973;28;20419;-49
2023/09/01 09:37:42;;;;;;;11.90;9.77;;;;;;;17.28;100.00;101021.78;5086036;28;20467;-47
2023/09/01 09:40:14;;;;;;;10.15;8.52;;;;;;;17.13;100.00;100966.84;5089920;28;20048;-48
2023/09/01 09:42:43;;;;;;;11.25;8.32;;;;;;;17.40;100.00;100979.38;5088687;28;20085;-57
2023/09/01 09:45:28;;;;;;;9.88;8.27;;;;;;;18.13;100.00;101049.59;5077492;28;20035;-53
2023/09/01 09:48:01;;;;;;;9.55;8.25;;;;;;;18.18;100.00;101007.59;5086408;28;20031;-55
2023/09/01 09:50:28;;;;;;;9.73;8.73;;;;;;;18.69;100.00;101066.63;5085901;28;20024;-50
2023/09/01 09:53:02;;;;;;;9.85;7.78;;;;;;;18.86;100.00;101074.44;5077111;28;20040;-55
2023/09/01 09:55:29;;;;;;;9.32;7.88;;;;;;;18.88;100.00;101089.41;5074403;28;20051;-51
2023/09/01 09:58:12;;;;;;;10.98;8.18;;;;;;;18.94;100.00;101091.66;5081302;28;20028;-50
2023/09/01 10:00:51;;;;;;;9.05;8.13;;;;;;;18.49;100.00;101027.88;5082361;28;20444;-54
2023/09/01 10:03:16;;;;;;;9.20;8.20;;;;;;;18.40;100.00;101018.63;5083376;28;20116;-48
2023/09/01 10:05:43;;;;;;;9.77;8.88;;;;;;;18.63;100.00;101080.34;5071912;28;20119;-52
2023/09/01 10:08:08;;;;;;;11.10;9.50;;;;;;;18.44;100.00;101086.78;5074248;28;20544;-47
2023/09/01 10:10:35;;;;;;;14.93;9.52;;;;;;;18.07;100.00;101009.19;5068666;28;20024;-48
2023/09/01 10:13:07;;;;;;;10.90;9.45;;;;;;;18.22;100.00;101037.53;5081081;28;20043;-48
2023/09/01 10:15:34;;;;;;;12.48;9.48;;;;;;;18.55;100.00;101088.81;5084382;28;20028;-54
2023/09/01 10:18:04;;;;;;;12.63;9.63;;;;;;;18.70;100.00;101085.22;5069720;28;20089;-46
2023/09/01 10:20:31;;;;;;;12.05;10.45;;;;;;;18.51;100.00;101024.16;5074239;28;20509;-48
2023/09/01 10:22:57;;;;;;;12.00;9.68;;;;;;;18.70;100.00;101028.34;5088551;28;20050;-52
2023/09/01 10:25:23;;;;;;;12.63;10.07;;;;;;;19.22;100.00;101109.47;5072812;28;20036;-55
2023/09/01 10:28:07;;;;;;;9.65;8.82;;;;;;;19.29;100.00;101100.13;5069686;28;20124;-58
2023/09/01 10:30:34;;;;;;;11.13;9.95;;;;;;;19.01;100.00;101042.31;5083962;28;20047;-50
2023/09/01 10:33:06;;;;;;;13.00;10.65;;;;;;;19.56;100.00;101117.03;5069202;28;20472;-49
2023/09/01 10:35:38;;;;;;;11.73;10.63;;;;;;;19.52;100.00;101123.56;5070195;28;20045;-54
2023/09/01 10:38:13;;;;;;;12.40;10.77;;;;;;;19.47;100.00;101119.44;5080635;28;20292;-54
2023/09/01 10:40:45;;;;;;;10.65;9.52;;;;;;;19.39;100.00;101071.91;5073767;28;20032;-54
2023/09/01 10:43:11;;;;;;;11.50;10.40;;;;;;;19.82;100.00;101112.66;5085903;28;20151;-56
2023/09/01 10:45:38;;;;;;;11.40;10.20;;;;;;;19.97;100.00;101114.31;5090640;28;20028;-55
2023/09/01 10:48:04;;;;;;;11.40;10.23;;;;;;;19.88;100.00;101114.06;5089878;28;20039;-50
2023/09/01 10:50:34;;;;;;;12.02;10.80;;;;;;;19.76;100.00;101123.72;5086428;28;20044;-46
2023/09/01 10:53:30;;;;;;;14.48;10.50;;;;;;;19.80;100.00;101130.59;5086446;28;20468;-51
2023/09/01 10:56:25;;;;;;;10.30;9.18;;;;;;;19.92;100.00;101121.78;5093187;28;20047;-48
2023/09/01 10:58:52;;;;;;;10.73;9.63;;;;;;;19.98;100.00;101141.88;5062931;28;20048;-50
2023/09/01 11:01:26;;;;;;;10.55;9.40;;;;;;;19.47;100.00;101068.72;5091012;28;20479;-53
2023/09/01 11:03:52;;;;;;;10.40;9.40;;;;;;;19.46;100.00;101064.34;5089444;28;20051;-49
2023/09/01 11:06:17;;;;;;;10.38;9.48;;;;;;;19.56;100.00;101082.31;5089843;28;20040;-50
2023/09/01 11:09:01;;;;;;;10.77;9.70;;;;;;;19.48;100.00;101086.44;5083532;28;20102;-47